Time;durP1;ratioP1;P1;durP2;ratioP2;P2;SDS_P1;SDS_P2;PMS_P1;PMS_P2;Temp;Humidity;BMP_temperature;BMP_pressure;BME280_temperature;BME280_humidity;BME280_pressure;Samples;Min_cycle;Max_cycle;Signal;HPM_P1;HPM_P2
2022/04/03 00:02:19;;;;;;;73.72;8.85;;;;;;;2.41;100.00;97876.94;5004667;28;20033;-56
2022/04/03 00:04:44;;;;;;;87.28;8.50;;;;;;;2.69;100.00;97887.78;5003927;28;20025;-54
2022/04/03 00:07:11;;;;;;;67.80;7.68;;;;;;;2.68;100.00;97885.22;5006684;28;20162;-56
2022/04/03 00:09:36;;;;;;;58.83;7.50;;;;;;;2.63;100.00;97884.44;5007100;28;20097;-55
2022/04/03 00:12:03;;;;;;;67.40;7.57;;;;;;;2.67;100.00;97886.09;5005988;28;20129;-55
2022/04/03 00:14:28;;;;;;;77.72;8.65;;;;;;;2.47;100.00;97884.56;5003632;28;20133;-56
2022/04/03 00:16:53;;;;;;;67.10;8.00;;;;;;;2.72;100.00;97880.88;5004079;28;20132;-55
2022/04/03 00:19:19;;;;;;;71.00;7.25;;;;;;;2.74;100.00;97880.00;5006942;28;20037;-56
2022/04/03 00:21:44;;;;;;;69.40;7.88;;;;;;;2.52;100.00;97881.97;5004684;28;20080;-56
2022/04/03 00:24:10;;;;;;;60.40;6.75;;;;;;;2.68;100.00;97886.09;5005802;28;20506;-55
2022/04/03 00:26:35;;;;;;;82.68;9.82;;;;;;;2.34;100.00;97885.59;5005511;28;20475;-55
2022/04/03 00:29:00;;;;;;;63.47;7.88;;;;;;;2.42;100.00;97881.19;5008329;28;20529;-56
2022/04/03 00:31:26;;;;;;;65.43;7.57;;;;;;;2.38;100.00;97887.25;5003967;28;20624;-55
2022/04/03 00:33:51;;;;;;;64.35;7.03;;;;;;;2.40;100.00;97898.38;5006046;28;20029;-56
2022/04/03 00:36:17;;;;;;;74.80;8.02;;;;;;;2.31;100.00;97890.75;5008066;28;20042;-56
2022/04/03 00:38:42;;;;;;;67.35;7.00;;;;;;;2.41;100.00;97889.81;5006788;28;20034;-55
2022/04/03 00:41:08;;;;;;;64.68;7.57;;;;;;;2.21;100.00;97884.84;5006124;28;20076;-56
2022/04/03 00:43:33;;;;;;;68.20;7.43;;;;;;;2.41;100.00;97887.22;5006370;28;20028;-55
2022/04/03 00:46:00;;;;;;;61.58;6.60;;;;;;;2.14;100.00;97890.06;5005182;28;20068;-56
2022/04/03 00:48:26;;;;;;;75.97;7.78;;;;;;;2.36;100.00;97894.13;5008809;28;20570;-56
2022/04/03 00:50:53;;;;;;;72.07;7.85;;;;;;;1.92;100.00;97893.66;5006607;28;20045;-55
2022/04/03 00:53:19;;;;;;;65.38;7.25;;;;;;;2.33;100.00;97889.00;5009046;28;20029;-56
2022/04/03 00:55:45;;;;;;;69.22;7.22;;;;;;;2.33;100.00;97893.31;5010551;28;20042;-55
2022/04/03 00:58:11;;;;;;;64.18;6.88;;;;;;;2.24;100.00;97897.69;5005039;28;20084;-55
2022/04/03 01:00:37;;;;;;;59.70;7.10;;;;;;;2.18;100.00;97899.47;5006945;28;20492;-56
2022/04/03 01:03:03;;;;;;;67.72;7.05;;;;;;;1.98;100.00;97892.75;5009452;28;20026;-55
2022/04/03 01:05:28;;;;;;;69.63;7.35;;;;;;;2.06;100.00;97898.69;5023922;28;20033;-56
2022/04/03 01:07:53;;;;;;;77.82;8.07;;;;;;;1.93;100.00;97897.94;5009442;28;20956;-56
2022/04/03 01:10:19;;;;;;;61.85;6.78;;;;;;;1.95;100.00;97897.06;5005994;28;20039;-55
2022/04/03 01:12:45;;;;;;;73.30;8.10;;;;;;;1.89;100.00;97895.41;5007776;28;20480;-57
2022/04/03 01:15:13;;;;;;;66.50;7.40;;;;;;;1.73;100.00;97898.09;5010018;28;20503;-55
2022/04/03 01:17:38;;;;;;;61.60;7.03;;;;;;;1.68;100.00;97899.84;5009309;28;20026;-56
2022/04/03 01:20:06;;;;;;;81.78;7.88;;;;;;;1.59;100.00;97911.91;5009459;28;20032;-57
2022/04/03 01:22:31;;;;;;;65.53;7.18;;;;;;;1.60;100.00;97906.78;5006514;28;20607;-56
2022/04/03 01:24:57;;;;;;;85.00;7.90;;;;;;;1.27;100.00;97912.94;5009912;28;20084;-58
2022/04/03 01:27:22;;;;;;;57.63;5.75;;;;;;;1.71;100.00;97912.69;5006676;28;20037;-56
2022/04/03 01:29:49;;;;;;;67.20;6.70;;;;;;;1.33;100.00;97903.50;5010889;28;20042;-56
2022/04/03 01:32:14;;;;;;;73.28;7.07;;;;;;;1.51;100.00;97906.84;5008948;28;20034;-57
2022/04/03 01:34:40;;;;;;;75.78;7.40;;;;;;;1.40;100.00;97903.44;5010845;28;20100;-56
2022/04/03 01:37:05;;;;;;;74.63;6.85;;;;;;;1.19;100.00;97913.00;5009800;28;20121;-54
2022/04/03 01:39:31;;;;;;;68.57;7.28;;;;;;;1.28;100.00;97915.50;5006190;28;20026;-55
2022/04/03 01:41:57;;;;;;;69.88;7.22;;;;;;;1.47;100.00;97910.25;5007186;28;20183;-55
2022/04/03 01:44:22;;;;;;;87.13;7.88;;;;;;;1.40;100.00;97913.72;5008258;28;20801;-54
2022/04/03 01:46:48;;;;;;;60.30;6.40;;;;;;;1.07;100.00;97915.63;5009788;28;20045;-54
2022/04/03 01:49:13;;;;;;;72.32;7.13;;;;;;;1.03;100.00;97907.09;5005476;28;20021;-54
2022/04/03 01:51:38;;;;;;;71.15;6.93;;;;;;;1.03;100.00;97908.78;5008497;28;20462;-55
2022/04/03 01:54:04;;;;;;;59.33;6.13;;;;;;;0.96;100.00;97908.81;5005568;28;20029;-57
2022/04/03 01:56:30;;;;;;;76.60;7.50;;;;;;;1.06;100.00;97911.34;5005488;28;20049;-55
2022/04/03 01:58:56;;;;;;;66.38;6.78;;;;;;;1.09;100.00;97908.78;5006763;28;20040;-54
2022/04/03 02:01:21;;;;;;;70.75;7.25;;;;;;;1.06;100.00;97908.78;5007754;28;20033;-55
2022/04/03 02:03:46;;;;;;;57.03;7.07;;;;;;;1.11;100.00;97907.91;5007652;28;20939;-56
2022/04/03 02:06:13;;;;;;;64.05;7.00;;;;;;;0.98;100.00;97910.53;5007353;28;20092;-56
2022/04/03 02:08:39;;;;;;;77.72;7.57;;;;;;;1.01;100.00;97910.50;5004355;28;20057;-55
2022/04/03 02:11:04;;;;;;;67.35;7.15;;;;;;;0.79;100.00;97914.88;5005213;28;20060;-55
2022/04/03 02:13:29;;;;;;;50.80;6.53;;;;;;;0.95;100.00;97916.53;5006021;28;20018;-57
2022/04/03 02:15:55;;;;;;;79.95;7.15;;;;;;;0.82;100.00;97912.31;5004953;28;20034;-55
2022/04/03 02:18:20;;;;;;;73.07;6.78;;;;;;;0.85;100.00;97915.72;5005968;28;20038;-55
2022/04/03 02:20:45;;;;;;;92.60;7.95;;;;;;;0.60;100.00;97914.09;5008229;28;20029;-54
2022/04/03 02:23:11;;;;;;;52.70;6.18;;;;;;;0.90;100.00;97914.00;5008313;28;20928;-56
2022/04/03 02:25:36;;;;;;;78.68;7.18;;;;;;;0.84;100.00;97919.13;5011635;28;20026;-56
2022/04/03 02:28:03;;;;;;;73.35;7.07;;;;;;;0.75;100.00;97920.03;5006876;28;20452;-55
2022/04/03 02:30:29;;;;;;;73.95;6.72;;;;;;;0.79;100.00;97925.13;5005600;28;20038;-56
2022/04/03 02:32:54;;;;;;;77.80;7.38;;;;;;;0.86;100.00;97927.69;5007902;28;20129;-54
2022/04/03 02:35:19;;;;;;;65.28;6.45;;;;;;;0.68;100.00;97922.59;5007173;28;20480;-55
2022/04/03 02:37:45;;;;;;;82.05;7.38;;;;;;;0.69;100.00;97930.31;5008378;28;20109;-55
2022/04/03 02:40:13;;;;;;;78.13;7.50;;;;;;;0.57;100.00;97933.78;5004182;28;20103;-54
2022/04/03 02:42:39;;;;;;;69.90;6.93;;;;;;;0.63;100.00;97945.72;5006068;28;20030;-54
2022/04/03 02:45:06;;;;;;;86.25;7.75;;;;;;;0.57;100.00;97936.34;5007253;28;20555;-54
2022/04/03 02:47:34;;;;;;;84.05;8.20;;;;;;;0.73;100.00;97933.72;5005095;28;20388;-56
2022/04/03 02:50:00;;;;;;;87.13;7.35;;;;;;;0.75;100.00;97934.56;5005519;28;20034;-55
2022/04/03 02:52:25;;;;;;;74.45;6.93;;;;;;;0.44;100.00;97939.78;5009324;28;20093;-57
2022/04/03 02:54:51;;;;;;;99.22;8.15;;;;;;;0.56;100.00;97939.75;5008907;28;20414;-55
2022/04/03 02:57:17;;;;;;;70.45;6.97;;;;;;;0.51;100.00;97941.47;5006294;28;20042;-56
2022/04/03 02:59:44;;;;;;;74.38;6.75;;;;;;;0.29;100.00;97944.94;5006030;28;20557;-55
2022/04/03 03:02:10;;;;;;;78.43;7.50;;;;;;;0.45;100.00;97945.78;5008690;28;20724;-54
2022/04/03 03:04:35;;;;;;;65.78;6.85;;;;;;;0.28;100.00;97943.22;5006666;28;20578;-56
2022/04/03 03:07:10;;;;;;;77.63;6.93;;;;;;;0.37;100.00;97949.19;5003471;28;20050;-56
2022/04/03 03:09:35;;;;;;;68.13;6.97;;;;;;;0.36;100.00;97951.75;5007991;28;20086;-54
2022/04/03 03:12:01;;;;;;;61.75;6.60;;;;;;;0.35;100.00;97947.47;5000728;28;20042;-55
2022/04/03 03:14:27;;;;;;;88.15;7.68;;;;;;;0.40;100.00;97953.47;5003590;28;20829;-56
2022/04/03 03:16:53;;;;;;;70.15;7.55;;;;;;;0.29;100.00;97953.47;5002874;28;20042;-54
2022/04/03 03:19:19;;;;;;;80.85;7.78;;;;;;;0.29;100.00;97955.19;5005847;28;20022;-55
2022/04/03 03:21:45;;;;;;;65.18;6.45;;;;;;;0.33;100.00;97959.44;5003145;28;20455;-54
2022/04/03 03:24:10;;;;;;;76.50;6.78;;;;;;;0.33;100.00;97954.31;5001383;28;20176;-56
2022/04/03 03:26:36;;;;;;;66.22;6.72;;;;;;;0.32;100.00;97950.06;5002314;28;20030;-55
2022/04/03 03:29:02;;;;;;;89.00;7.63;;;;;;;0.24;100.00;97956.88;5003601;28;20033;-54
2022/04/03 03:31:27;;;;;;;86.53;7.57;;;;;;;0.12;100.00;97953.47;5002126;28;20103;-56
2022/04/03 03:33:53;;;;;;;70.93;6.90;;;;;;;0.11;100.00;97967.19;5009277;28;20076;-54
2022/04/03 03:36:19;;;;;;;72.03;6.85;;;;;;;0.19;100.00;97964.59;5001542;28;20037;-56
2022/04/03 03:38:44;;;;;;;70.43;7.13;;;;;;;0.31;100.00;97963.72;5008117;28;20076;-56
2022/04/03 03:41:09;;;;;;;76.72;7.20;;;;;;;0.28;100.00;97963.75;5007901;28;20068;-54
2022/04/03 03:43:35;;;;;;;84.53;7.93;;;;;;;0.15;100.00;97966.31;5004627;28;20876;-56
2022/04/03 03:46:01;;;;;;;76.45;6.80;;;;;;;0.02;100.00;97969.75;5006358;28;20702;-54
2022/04/03 03:48:27;;;;;;;77.68;7.35;;;;;;;0.05;100.00;97971.44;5006006;28;20095;-54
2022/04/03 03:50:53;;;;;;;53.33;6.53;;;;;;;-0.02;100.00;97968.00;5005417;28;20129;-55
2022/04/03 03:53:19;;;;;;;69.18;7.03;;;;;;;0.00;100.00;97974.00;5004389;28;20037;-55
2022/04/03 03:55:45;;;;;;;83.18;7.65;;;;;;;-0.13;100.00;97972.28;5001821;28;20112;-54
2022/04/03 03:58:10;;;;;;;80.35;8.15;;;;;;;-0.03;100.00;97971.44;5005494;28;20054;-55
2022/04/03 04:00:36;;;;;;;99.63;8.05;;;;;;;-0.06;100.00;97969.72;5003941;28;20424;-55
2022/04/03 04:03:02;;;;;;;87.70;7.68;;;;;;;-0.16;100.00;97985.09;5004461;28;20118;-55
2022/04/03 04:05:28;;;;;;;84.10;7.28;;;;;;;-0.08;100.00;97976.53;5002021;28;20042;-56
2022/04/03 04:07:53;;;;;;;91.35;7.93;;;;;;;-0.02;100.00;97978.25;5008092;28;20079;-54
2022/04/03 04:10:19;;;;;;;95.07;8.07;;;;;;;-0.24;100.00;97985.94;5008430;28;20084;-56
2022/04/03 04:12:45;;;;;;;75.53;7.38;;;;;;;-0.23;100.00;97989.34;5005746;28;20018;-57
2022/04/03 04:15:12;;;;;;;77.13;7.75;;;;;;;0.02;100.00;97987.69;5008272;28;20400;-55
2022/04/03 04:17:40;;;;;;;74.13;7.10;;;;;;;0.08;100.00;97985.13;5005566;28;20051;-57
2022/04/03 04:20:06;;;;;;;74.35;7.22;;;;;;;-0.02;100.00;97996.22;5005640;28;20021;-56
2022/04/03 04:22:32;;;;;;;72.43;7.75;;;;;;;-0.14;100.00;97996.22;5007624;28;20045;-57
2022/04/03 04:24:57;;;;;;;89.80;8.43;;;;;;;-0.15;100.00;97999.63;5010760;28;20029;-57
2022/04/03 04:27:22;;;;;;;81.00;7.95;;;;;;;0.05;100.00;97997.94;5008812;28;20125;-56
2022/04/03 04:29:48;;;;;;;70.03;7.30;;;;;;;0.02;100.00;98005.66;5008475;28;20129;-56
2022/04/03 04:32:13;;;;;;;75.70;7.45;;;;;;;0.00;100.00;98020.16;5008446;28;20443;-57
2022/04/03 04:34:39;;;;;;;69.05;7.32;;;;;;;0.06;100.00;98009.06;5005337;28;20747;-56
2022/04/03 04:37:04;;;;;;;103.13;8.27;;;;;;;0.06;100.00;98011.63;5009000;28;20038;-56
2022/04/03 04:39:31;;;;;;;80.38;8.02;;;;;;;0.05;100.00;98012.47;5006318;28;20117;-56
2022/04/03 04:41:57;;;;;;;85.55;7.70;;;;;;;0.15;100.00;98015.06;5002092;28;20177;-58
2022/04/03 04:44:22;;;;;;;74.40;6.95;;;;;;;0.11;100.00;98021.03;5009319;28;20112;-57
2022/04/03 04:46:47;;;;;;;82.43;7.53;;;;;;;0.08;100.00;98018.47;5010745;28;20179;-56
2022/04/03 04:49:14;;;;;;;86.57;7.93;;;;;;;0.04;100.00;98016.75;5010706;28;20030;-55
2022/04/03 04:51:40;;;;;;;67.53;6.72;;;;;;;0.29;100.00;98021.88;5007927;28;20080;-55
2022/04/03 04:54:05;;;;;;;72.28;7.25;;;;;;;0.35;100.00;98019.31;5007521;28;20144;-57
2022/04/03 04:56:30;;;;;;;69.40;7.53;;;;;;;0.01;100.00;98016.75;5006808;28;20042;-56
2022/04/03 04:58:55;;;;;;;78.07;7.82;;;;;;;0.00;100.00;98025.31;5005445;28;20026;-55
2022/04/03 05:01:21;;;;;;;96.72;8.93;;;;;;;0.13;100.00;98032.16;5008384;28;20058;-55
2022/04/03 05:03:46;;;;;;;76.43;7.53;;;;;;;-0.14;100.00;98038.09;5009336;28;20034;-56
2022/04/03 05:06:15;;;;;;;76.70;7.82;;;;;;;-0.12;100.00;98040.66;5005770;28;20065;-54
2022/04/03 05:08:41;;;;;;;81.13;8.07;;;;;;;-0.02;100.00;98037.25;5008578;28;20038;-55
2022/04/03 05:11:06;;;;;;;115.82;9.73;;;;;;;0.08;100.00;98038.97;5005880;28;20037;-57
2022/04/03 05:13:32;;;;;;;84.18;8.32;;;;;;;0.11;100.00;98039.00;5009591;28;20125;-57
2022/04/03 05:15:58;;;;;;;72.90;6.22;;;;;;;0.57;100.00;98046.72;5008634;28;20129;-55
2022/04/03 05:18:23;;;;;;;72.80;7.53;;;;;;;0.14;100.00;98046.66;5008379;28;20027;-57
2022/04/03 05:20:49;;;;;;;73.13;7.25;;;;;;;0.28;100.00;98050.97;5009218;28;20034;-56
2022/04/03 05:23:15;;;;;;;67.57;7.63;;;;;;;-0.16;100.00;98056.91;5010963;28;20458;-55
2022/04/03 05:25:40;;;;;;;98.38;8.88;;;;;;;-0.05;100.00;98057.78;5010156;28;20067;-57
2022/04/03 05:28:07;;;;;;;73.53;7.78;;;;;;;-0.22;100.00;98061.13;5010158;28;20120;-56
2022/04/03 05:30:32;;;;;;;79.80;8.02;;;;;;;-0.11;100.00;98057.72;5006832;28;20030;-55
2022/04/03 05:32:57;;;;;;;90.68;8.88;;;;;;;0.14;100.00;98059.50;5006174;28;20081;-56
2022/04/03 05:35:23;;;;;;;69.60;9.18;;;;;;;0.15;100.00;98061.22;5005618;28;20107;-55
2022/04/03 05:37:49;;;;;;;94.13;10.18;;;;;;;0.22;100.00;98068.91;5006551;28;20080;-56
2022/04/03 05:40:15;;;;;;;99.50;9.30;;;;;;;0.43;100.00;98071.50;5008571;28;20135;-55
2022/04/03 05:42:41;;;;;;;76.28;7.93;;;;;;;0.48;100.00;98071.50;5007636;28;20026;-55
2022/04/03 05:45:07;;;;;;;82.22;7.55;;;;;;;0.60;100.00;98073.22;5009014;28;20531;-55
2022/04/03 05:47:33;;;;;;;80.50;8.18;;;;;;;1.21;100.00;98077.44;5002985;28;20018;-55
2022/04/03 05:49:59;;;;;;;79.85;8.35;;;;;;;1.45;100.00;98077.38;5008569;28;20033;-54
2022/04/03 05:52:24;;;;;;;68.05;7.72;;;;;;;1.20;100.00;98079.16;5004801;28;20030;-55
2022/04/03 05:54:50;;;;;;;118.70;9.40;;;;;;;1.50;100.00;98085.91;5008718;28;20636;-54
2022/04/03 05:57:16;;;;;;;72.75;7.75;;;;;;;1.56;100.00;98085.03;5008805;28;20159;-55
2022/04/03 05:59:41;;;;;;;69.35;7.75;;;;;;;1.87;100.00;98084.91;5007563;28;20025;-57
2022/04/03 06:02:07;;;;;;;80.97;7.60;;;;;;;1.69;100.00;98079.00;5009822;28;20903;-56
2022/04/03 06:04:33;;;;;;;47.78;6.35;;;;;;;1.94;100.00;98081.44;5009820;28;20668;-56
2022/04/03 06:06:58;;;;;;;91.88;8.00;;;;;;;2.10;100.00;98077.91;5008514;28;20037;-57
2022/04/03 06:09:23;;;;;;;65.28;7.00;;;;;;;2.20;100.00;98086.44;5006203;28;20021;-56
2022/04/03 06:11:49;;;;;;;70.38;6.50;;;;;;;2.07;100.00;98090.78;5009098;28;20045;-57
2022/04/03 06:14:14;;;;;;;80.30;6.72;;;;;;;2.56;100.00;98099.94;5009308;28;20083;-55
2022/04/03 06:16:40;;;;;;;50.70;5.45;;;;;;;2.05;100.00;98092.53;5004856;28;20042;-56
2022/04/03 06:19:05;;;;;;;72.53;6.38;;;;;;;3.05;100.00;98093.50;5005738;28;20025;-56
2022/04/03 06:21:31;;;;;;;73.35;6.32;;;;;;;3.27;100.00;98101.88;5006725;28;20041;-56
2022/04/03 06:23:56;;;;;;;66.13;5.63;;;;;;;3.56;100.00;98098.97;5006197;28;20540;-55
2022/04/03 06:26:22;;;;;;;77.25;6.28;;;;;;;4.00;100.00;98100.16;5008784;28;20042;-57
2022/04/03 06:28:47;;;;;;;78.85;6.10;;;;;;;4.52;100.00;98092.56;5003402;28;20096;-56
2022/04/03 06:31:12;;;;;;;68.05;6.28;;;;;;;4.74;100.00;98100.84;5007659;28;20038;-55
2022/04/03 06:33:38;;;;;;;70.57;6.07;;;;;;;4.11;100.00;98099.19;5006970;28;20033;-57
2022/04/03 06:36:03;;;;;;;53.58;5.43;;;;;;;5.01;100.00;98107.28;5006721;28;20042;-57
2022/04/03 06:38:29;;;;;;;77.13;6.40;;;;;;;4.42;100.00;98110.78;5003584;28;20048;-55
2022/04/03 06:40:57;;;;;;;51.42;5.38;;;;;;;6.44;93.03;98104.50;5006160;28;20605;-58
2022/04/03 06:43:28;;;;;;;75.57;6.38;;;;;;;5.52;90.75;98111.56;5008110;28;20116;-58
2022/04/03 06:45:55;;;;;;;64.40;5.43;;;;;;;6.92;77.65;98111.16;5005365;28;20037;-57
2022/04/03 06:48:22;;;;;;;63.50;5.43;;;;;;;7.00;72.74;98119.59;5006274;28;20067;-56
2022/04/03 06:50:48;;;;;;;65.35;5.53;;;;;;;7.29;73.10;98115.41;5006931;28;20047;-54
2022/04/03 06:53:13;;;;;;;73.95;5.95;;;;;;;9.99;64.20;98108.72;5006035;28;20029;-56
2022/04/03 06:55:38;;;;;;;83.65;6.40;;;;;;;8.88;64.70;98116.91;5003330;28;20042;-54
2022/04/03 06:58:04;;;;;;;63.85;5.82;;;;;;;10.22;60.29;98115.69;5007371;28;20100;-54
2022/04/03 07:00:30;;;;;;;70.53;5.93;;;;;;;9.16;59.79;98121.22;5006465;28;20040;-56
2022/04/03 07:02:56;;;;;;;65.55;5.88;;;;;;;11.23;53.77;98119.59;5008781;28;20125;-55
2022/04/03 07:05:21;;;;;;;70.65;6.43;;;;;;;8.93;56.24;98125.41;5006092;28;20506;-56
2022/04/03 07:07:50;;;;;;;76.22;6.55;;;;;;;9.52;58.33;98123.44;5007240;28;20037;-54
2022/04/03 07:10:16;;;;;;;74.82;6.43;;;;;;;9.59;54.63;98130.16;5007104;28;20538;-57
2022/04/03 07:12:41;;;;;;;75.80;6.35;;;;;;;10.39;56.00;98122.06;5006099;28;20031;-54
2022/04/03 07:15:11;;;;;;;64.30;6.03;;;;;;;10.21;54.44;98134.84;5006035;28;20025;-56
2022/04/03 07:17:40;;;;;;;63.03;5.82;;;;;;;9.71;53.56;98136.69;5002543;28;20029;-56
2022/04/03 07:20:06;;;;;;;58.90;5.75;;;;;;;9.58;54.21;98138.88;5004396;28;20034;-56
2022/04/03 07:22:31;;;;;;;73.28;6.70;;;;;;;8.03;55.40;98144.56;5008891;28;20765;-57
2022/04/03 07:24:57;;;;;;;87.30;7.05;;;;;;;7.91;56.49;98140.59;5005769;28;20107;-54
2022/04/03 07:27:23;;;;;;;76.53;6.60;;;;;;;6.43;57.63;98148.59;5007045;28;20034;-57
2022/04/03 07:29:48;;;;;;;79.93;6.70;;;;;;;6.24;56.32;98148.13;5002893;28;20061;-56
2022/04/03 07:32:13;;;;;;;70.68;6.00;;;;;;;8.84;55.60;98146.50;5003452;28;20037;-55
2022/04/03 07:34:38;;;;;;;68.70;6.10;;;;;;;9.59;52.08;98151.84;5005544;28;20036;-56
2022/04/03 07:37:04;;;;;;;77.90;6.30;;;;;;;11.49;49.35;98157.69;5004564;28;20062;-55
2022/04/03 07:39:30;;;;;;;70.97;6.10;;;;;;;10.85;49.01;98158.56;5003316;28;20025;-57
2022/04/03 07:41:56;;;;;;;54.22;5.00;;;;;;;9.97;53.30;98162.66;4999771;28;20048;-56
2022/04/03 07:44:21;;;;;;;64.97;6.07;;;;;;;12.08;48.14;98156.88;5000582;28;20030;-56
2022/04/03 07:46:46;;;;;;;58.92;5.68;;;;;;;12.36;50.01;98160.88;5002502;28;20448;-58
2022/04/03 07:49:12;;;;;;;82.25;6.60;;;;;;;12.06;46.90;98158.72;5002174;28;20117;-55
2022/04/03 07:51:37;;;;;;;66.63;6.05;;;;;;;12.19;43.72;98163.41;5003100;28;20136;-56
2022/04/03 07:54:03;;;;;;;73.90;6.45;;;;;;;12.91;45.40;98160.91;5003081;28;20121;-56
2022/04/03 07:56:30;;;;;;;58.13;5.43;;;;;;;12.51;50.06;98164.53;5003154;28;20061;-57
2022/04/03 07:58:56;;;;;;;66.80;6.07;;;;;;;12.80;47.41;98165.81;5001131;28;20544;-57
2022/04/03 08:01:21;;;;;;;66.00;5.80;;;;;;;13.46;48.96;98167.03;5002637;28;20049;-55
2022/04/03 08:03:46;;;;;;;66.97;5.82;;;;;;;13.18;47.30;98168.34;5003256;28;20030;-56
2022/04/03 08:06:12;;;;;;;66.10;6.10;;;;;;;11.45;48.15;98177.00;5004482;28;20048;-57
2022/04/03 08:08:37;;;;;;;57.83;5.53;;;;;;;11.34;45.21;98175.69;4968315;28;1067834;-55
2022/04/03 08:11:02;;;;;;;65.05;5.70;;;;;;;10.14;50.75;98180.28;5006091;28;20580;-56
2022/04/03 08:13:28;;;;;;;58.75;6.07;;;;;;;9.86;50.38;98190.00;5005624;28;20182;-55
2022/04/03 08:15:54;;;;;;;65.10;6.10;;;;;;;8.41;49.00;98186.78;5001301;28;20065;-55
2022/04/03 08:18:22;;;;;;;80.93;6.80;;;;;;;9.37;48.46;98189.91;5002954;28;20038;-56
2022/04/03 08:20:47;;;;;;;79.60;6.85;;;;;;;9.45;74.60;98196.56;5000821;28;20988;-55
2022/04/03 08:23:12;;;;;;;67.38;6.40;;;;;;;8.65;57.94;98199.09;5006140;28;20025;-57
2022/04/03 08:25:39;;;;;;;82.13;7.03;;;;;;;7.29;59.29;98207.06;5005280;28;20574;-57
2022/04/03 08:28:07;;;;;;;91.55;7.25;;;;;;;7.46;57.93;98208.41;5002065;28;20736;-54
2022/04/03 08:30:34;;;;;;;84.68;7.10;;;;;;;7.88;56.13;98205.59;5005313;28;20127;-56
2022/04/03 08:33:01;;;;;;;70.68;5.93;;;;;;;9.82;100.00;98205.75;5006084;28;20384;-57
2022/04/03 08:35:28;;;;;;;77.57;6.82;;;;;;;8.09;64.85;98214.56;5004580;28;20205;-56
2022/04/03 08:37:54;;;;;;;68.35;6.53;;;;;;;8.22;63.38;98209.88;5005270;28;20173;-57
2022/04/03 08:40:22;;;;;;;80.22;6.95;;;;;;;9.91;59.45;98206.34;5001668;28;20045;-57
2022/04/03 08:42:50;;;;;;;88.82;6.88;;;;;;;10.17;58.56;98205.41;5004796;28;20029;-55
2022/04/03 08:45:15;;;;;;;69.25;5.93;;;;;;;12.45;49.66;98206.69;5006069;28;20037;-56
2022/04/03 08:47:45;;;;;;;74.00;6.32;;;;;;;9.57;55.73;98203.13;5006889;28;20022;-55
2022/04/03 08:50:15;;;;;;;77.25;6.65;;;;;;;13.15;50.17;98201.69;5002096;28;20022;-55
2022/04/03 08:52:46;;;;;;;68.35;6.38;;;;;;;14.16;42.23;98207.13;5001215;28;20059;-56
2022/04/03 08:55:12;;;;;;;49.17;4.97;;;;;;;12.98;49.66;98210.38;5003093;28;20040;-58
2022/04/03 08:57:38;;;;;;;50.00;5.15;;;;;;;13.75;38.71;98211.88;5003154;28;20068;-56
2022/04/03 09:00:08;;;;;;;68.50;6.13;;;;;;;15.07;38.38;98211.91;5003753;28;20137;-55
2022/04/03 09:02:34;;;;;;;75.20;6.10;;;;;;;15.21;46.12;98207.56;5003851;28;20057;-55
2022/04/03 09:04:59;;;;;;;73.45;6.13;;;;;;;15.34;39.88;98217.41;5005024;28;20112;-57
2022/04/03 09:07:25;;;;;;;62.92;5.97;;;;;;;15.74;38.44;98212.50;5006630;28;20118;-55
2022/04/03 09:10:10;;;;;;;75.30;6.18;;;;;;;14.86;43.38;98211.34;5004418;28;20117;-56
2022/04/03 09:12:49;;;;;;;50.88;5.13;;;;;;;13.57;41.73;98205.78;5007390;28;20077;-55
2022/04/03 09:15:16;;;;;;;59.40;5.20;;;;;;;12.11;40.80;98214.28;5007311;28;20033;-55
2022/04/03 09:17:45;;;;;;;52.40;5.18;;;;;;;12.64;41.09;98212.78;5009785;28;20026;-56
2022/04/03 09:20:12;;;;;;;79.65;6.82;;;;;;;14.28;39.37;98208.28;5004457;28;20036;-56
2022/04/03 09:22:40;;;;;;;54.22;5.40;;;;;;;10.42;42.33;98205.38;5006692;28;20047;-57
2022/04/03 09:25:10;;;;;;;74.35;6.07;;;;;;;9.64;43.31;98206.38;5004600;28;20029;-58
2022/04/03 09:27:47;;;;;;;107.95;8.13;;;;;;;10.32;41.51;98210.09;5001600;28;20623;-57
2022/04/03 09:30:13;;;;;;;80.40;7.03;;;;;;;10.52;42.67;98211.97;4999218;28;20037;-60
2022/04/03 09:32:50;;;;;;;66.40;5.78;;;;;;;13.34;41.32;98201.69;5004657;28;20048;-60
2022/04/03 09:35:17;;;;;;;100.05;7.50;;;;;;;12.58;43.02;98199.13;5006117;28;20029;-59
2022/04/03 09:38:14;;;;;;;106.68;7.93;;;;;;;10.51;45.83;98207.66;5008586;28;20030;-58
2022/04/03 09:40:44;;;;;;;89.82;6.93;;;;;;;9.69;52.15;98212.28;5005854;28;20133;-59
2022/04/03 09:43:31;;;;;;;109.78;7.82;;;;;;;12.34;39.46;98199.31;5004944;28;20087;-58
2022/04/03 09:45:59;;;;;;;103.32;7.65;;;;;;;12.05;37.97;98203.22;5004438;28;20042;-56
2022/04/03 09:48:33;;;;;;;104.05;7.45;;;;;;;13.03;37.98;98188.28;5004767;28;20664;-57
2022/04/03 09:51:06;;;;;;;61.70;4.93;;;;;;;13.74;36.98;98199.69;5006804;28;21050;-56
2022/04/03 09:53:50;;;;;;;61.08;4.93;;;;;;;13.44;34.77;98195.06;5006854;28;20247;-58
2022/04/03 09:56:37;;;;;;;77.10;5.60;;;;;;;10.57;35.62;98202.22;5003024;28;20720;-56
2022/04/03 09:59:08;;;;;;;98.28;6.85;;;;;;;12.64;36.02;98191.00;5003096;28;20041;-57
2022/04/03 10:01:36;;;;;;;107.55;7.35;;;;;;;12.56;34.31;98199.19;5002998;28;20033;-57
2022/04/03 10:04:03;;;;;;;64.28;4.95;;;;;;;12.95;33.71;98202.66;5006034;28;20084;-57
2022/04/03 10:06:30;;;;;;;68.43;5.28;;;;;;;14.45;30.77;98191.63;5005047;28;20050;-57
2022/04/03 10:08:55;;;;;;;64.15;5.18;;;;;;;13.52;29.66;98195.53;5004817;28;20046;-56
2022/04/03 10:11:21;;;;;;;57.03;4.70;;;;;;;13.47;35.71;98197.53;5006747;28;20084;-56
2022/04/03 10:13:48;;;;;;;50.00;4.30;;;;;;;13.58;31.69;98205.72;5005172;28;20136;-56
2022/04/03 10:16:15;;;;;;;46.70;4.20;;;;;;;12.45;32.66;98202.31;5001245;28;20037;-57
2022/04/03 10:18:41;;;;;;;54.28;4.63;;;;;;;12.96;32.46;98193.84;5006064;28;20147;-56
2022/04/03 10:21:15;;;;;;;52.55;4.25;;;;;;;14.44;29.99;98197.78;5004029;28;20037;-56
2022/04/03 10:23:43;;;;;;;94.25;6.90;;;;;;;11.16;31.78;98199.94;5005637;28;20049;-57
2022/04/03 10:26:11;;;;;;;84.03;6.13;;;;;;;13.75;33.58;98191.75;5006813;28;20034;-56
2022/04/03 10:28:40;;;;;;;95.40;6.50;;;;;;;14.23;35.41;98187.53;5004652;28;20222;-56
2022/04/03 10:31:08;;;;;;;81.88;5.72;;;;;;;15.18;37.91;98196.38;5003219;28;20068;-59
2022/04/03 10:33:39;;;;;;;73.18;5.38;;;;;;;12.06;32.27;98192.72;5008936;28;20068;-55
2022/04/03 10:36:09;;;;;;;56.10;4.82;;;;;;;13.80;33.71;98187.13;5002193;28;20052;-57
2022/04/03 10:38:35;;;;;;;50.40;4.28;;;;;;;12.74;36.50;98192.28;5007082;28;20075;-58
2022/04/03 10:41:00;;;;;;;53.33;4.53;;;;;;;14.37;34.13;98193.81;5002107;28;20046;-56
2022/04/03 10:43:29;;;;;;;63.00;4.72;;;;;;;14.16;36.01;98194.00;5000729;28;20026;-56
2022/04/03 10:45:54;;;;;;;86.57;5.97;;;;;;;14.69;33.63;98199.16;5002360;28;20037;-58
2022/04/03 10:48:20;;;;;;;82.65;5.95;;;;;;;15.38;36.90;98190.00;5004498;28;20430;-59
2022/04/03 10:51:05;;;;;;;89.90;6.53;;;;;;;15.49;32.63;98195.47;5003757;28;20099;-59
2022/04/03 10:53:38;;;;;;;42.35;3.95;;;;;;;14.71;31.42;98198.13;5001182;28;20075;-57
2022/04/03 10:56:09;;;;;;;81.28;6.00;;;;;;;13.28;32.61;98193.16;5004338;28;20041;-57
2022/04/03 10:58:43;;;;;;;73.75;5.47;;;;;;;10.65;32.07;98201.06;5003340;28;20024;-59
2022/04/03 11:01:21;;;;;;;86.10;6.40;;;;;;;12.10;31.38;98202.13;5000472;28;20041;-57
2022/04/03 11:03:54;;;;;;;50.53;4.45;;;;;;;11.03;31.90;98202.19;5004464;28;20404;-59
2022/04/03 11:06:21;;;;;;;54.90;5.00;;;;;;;17.02;31.31;98189.78;5005020;28;20026;-57
2022/04/03 11:09:03;;;;;;;49.75;4.70;;;;;;;12.00;32.72;98194.72;5002522;28;20029;-56
2022/04/03 11:11:58;;;;;;;56.97;4.80;;;;;;;12.11;32.49;98198.59;5006467;28;20052;-57
2022/04/03 11:14:57;;;;;;;54.47;4.63;;;;;;;13.17;31.29;98184.97;5009778;28;20044;-55
2022/04/03 11:17:47;;;;;;;52.50;4.50;;;;;;;10.55;29.39;98201.41;5008672;28;20030;-56
2022/04/03 11:20:28;;;;;;;57.10;5.13;;;;;;;12.07;27.09;98202.25;5005543;28;20597;-56
2022/04/03 11:22:54;;;;;;;39.50;3.90;;;;;;;12.70;26.54;98188.06;4998616;28;20132;-56
2022/04/03 11:25:21;;;;;;;65.15;5.32;;;;;;;13.30;27.97;98186.09;5004405;28;20120;-57